• Join FlightAware (Why Join?)
  • Login
  • US Flag 
09:54AM EDT


 

Airport Tracker/Info


-or-


 

Live Flight TrackerFlight Track Log ✈ EJA829P ✈ 14-Nov-2013 ✈ KRIC - KBHM

Flight Track Log - Related Links

Times and Time Zones

All times are in EST time to prevent confusion due to time zone crossing. See the EJA829P flight status page for this flight to view local times or setup timezone preferences in your user account.

Time Position Orientation Groundspeed Altitude Reporting Facility
EST Latitude Longitude Course Direction KTS MPH feet Rate Location/Type
09:46AM 37.4722 -77.3450 262° West 183 211 2,300  Level Washington Center
09:47AM 37.4381 -77.3967 230° Southwest 196 226 5,100 3,300 Climbing Washington Center
09:48AM 37.4264 -77.4825 260° West 218 251 8,800 1,980 Climbing Washington Center
09:49AM 37.4144 -77.5739 261° West 244 281 9,000 1,320 Climbing Washington Center
09:50AM 37.4022 -77.6703 261° West 270 311 11,500 2,940 Climbing Washington Center
09:51AM 37.3881 -77.7692 260° West 290 334 15,000 3,120 Climbing Washington Center
09:52AM 37.2768 -77.9486 262° West  Level Estimated
09:52AM 37.3736 -77.8786 261° West 303 349 17,800  Level Washington Center
09:53AM 37.3544 -77.9981 259° West 324 373 19,900 1,080 Climbing Washington Center
09:54AM 37.3292 -78.1150 255° West 344 396 20,000  Climbing Washington Center
09:55AM 37.3036 -78.2317 255° West 355 409 20,000 1,320 Level Washington Center
09:56AM 37.2844 -78.3483 258° West 355 409 22,700 2,820 Climbing Washington Center
09:57AM 37.2794 -78.4631 267° West 345 397 25,800 2,160 Climbing Washington Center
09:58AM 37.2764 -78.5883 268° West 345 397 27,000 1,260 Climbing Washington Center
09:59AM 37.2711 -78.7186 267° West 368 423 28,400 1,620 Climbing Washington Center
10:00AM 37.2678 -78.8411 268° West 385 443 30,300 1,920 Climbing Washington Center
10:01AM 37.2642 -78.9767 268° West 385 443 32,300 1,980 Climbing Washington Center
10:02AM 37.2583 -79.1069 267° West 385 443 34,300 1,980 Climbing Washington Center
10:03AM 37.2522 -79.2344 267° West 380 437 36,300 1,860 Climbing Washington Center
10:04AM 37.2381 -79.3589 262° West 375 432 38,000 840 Climbing Washington Center
10:05AM 37.2231 -79.5042 263° West 375 432 38,000  Level Washington Center
10:06AM 37.2081 -79.6392 262° West 390 449 38,000  Level Washington Center
10:07AM 37.1931 -79.7739 262° West 396 456 38,000  Level Washington Center
10:08AM 37.1778 -79.9086 262° West 396 456 38,000  Level Washington Center
10:09AM 37.1644 -80.0433 263° West 396 456 38,000  Level Washington Center
10:11AM 37.1383 -80.2481 261° West 391 450 38,000  Level Atlanta Center
10:12AM 37.1236 -80.3842 262° West 391 450 38,000  Level Atlanta Center
10:13AM 37.1067 -80.5178 261° West 391 450 38,000  Level Atlanta Center
10:14AM 37.0939 -80.6536 263° West 391 450 38,000  Level Atlanta Center
10:15AM 37.0658 -80.7692 253° West 391 450 38,000  Level Atlanta Center
10:16AM 37.0211 -80.8933 246° West 391 450 38,000  Level Atlanta Center
10:17AM 36.9761 -81.0172 246° West 391 450 38,000  Level Atlanta Center
10:18AM 36.9333 -81.1383 246° West 391 450 38,000  Level Atlanta Center
10:19AM 36.8842 -81.2750 246° West 391 450 38,000  Level Atlanta Center
10:20AM 36.8389 -81.3958 245° Southwest 391 450 38,000  Level Atlanta Center
10:21AM 36.7956 -81.5192 246° West 386 444 38,000  Level Atlanta Center
10:22AM 36.7583 -81.6292 247° West 386 444 38,000  Level Atlanta Center
10:23AM 36.7147 -81.7522 246° West 386 444 38,000  Level Atlanta Center
10:24AM 36.6689 -81.8725 245° Southwest 386 444 38,000  Level Atlanta Center
10:25AM 36.6253 -81.9928 246° West 386 444 38,000  Level Atlanta Center
10:26AM 36.5792 -82.1153 245° Southwest 386 444 38,000  Level Atlanta Center
10:27AM 36.5331 -82.2456 246° West 386 444 38,000  Level Atlanta Center
10:28AM 36.4869 -82.3656 244° Southwest 381 438 38,000  Level Atlanta Center
10:29AM 36.4425 -82.4800 244° Southwest 381 438 38,000  Level Atlanta Center
10:30AM 36.3981 -82.5994 245° Southwest 381 438 38,000  Level Atlanta Center
10:31AM 36.3556 -82.7136 245° Southwest 381 438 38,000  Level Atlanta Center
10:32AM 36.3108 -82.8303 245° Southwest 381 438 38,000  Level Atlanta Center
10:33AM 36.2683 -82.9469 246° West 376 433 38,000  Level Atlanta Center
10:34AM 36.2233 -83.0608 244° Southwest 376 433 38,000  Level Atlanta Center
10:35AM 36.1803 -83.1769 245° Southwest 370 426 38,000  Level Atlanta Center
10:36AM 36.1247 -83.2803 236° Southwest 370 426 38,000  Level Atlanta Center
10:37AM 36.0439 -83.3608 219° Southwest 370 426 38,000  Level Atlanta Center
10:38AM 35.9631 -83.4461 221° Southwest 379 436 38,000  Level Atlanta Center
10:39AM 35.8989 -83.5467 232° Southwest 379 436 38,000  Level Atlanta Center
10:40AM 35.8344 -83.6494 232° Southwest 379 436 38,000  Level Atlanta Center
10:41AM 35.7722 -83.7469 232° Southwest 379 436 38,000  Level Atlanta Center
10:43AM 35.6411 -83.9519 232° Southwest 379 436 38,000  Level Atlanta Center
10:44AM 35.5764 -84.0542 232° Southwest 379 436 38,000  Level Atlanta Center
10:45AM 35.5117 -84.1511 231° Southwest 379 436 38,000  Level Atlanta Center
10:46AM 35.4469 -84.2528 232° Southwest 379 436 38,000  Level Atlanta Center
10:47AM 35.3842 -84.3494 231° Southwest 374 430 38,000  Level Atlanta Center
10:48AM 35.3192 -84.4511 232° Southwest 374 430 38,000  Level Atlanta Center
10:49AM 35.2542 -84.5500 231° Southwest 374 430 38,000  Level Atlanta Center
10:50AM 35.1911 -84.6461 231° Southwest 374 430 38,000  Level Atlanta Center
10:51AM 35.1278 -84.7447 232° Southwest 374 430 38,000  Level Atlanta Center
10:52AM 35.0772 -84.8231 232° Southwest 374 430 38,000  Level Atlanta Center
10:53AM 35.0078 -84.9289 231° Southwest 374 430 38,000 -360 Level Atlanta Center
10:54AM 34.9444 -85.0219 230° Southwest 374 430 37,300 -1,140 Descending Atlanta Center
10:55AM 34.8789 -85.1225 232° Southwest 374 430 35,800 -1,200 Descending Atlanta Center
10:56AM 34.8156 -85.2203 232° Southwest 374 430 35,000 -420 Descending Atlanta Center
10:57AM 34.7478 -85.3206 231° Southwest 374 430 35,000 -600 Level Atlanta Center
10:58AM 34.6778 -85.4153 228° Southwest 374 430 33,900 -1,500 Descending Atlanta Center
10:59AM 34.6058 -85.5075 227° Southwest 379 436 32,100 -2,040 Descending Atlanta Center
11:00AM 34.5233 -85.5894 219° Southwest 379 436 29,800 -2,400 Descending Atlanta Center
11:01AM 34.4306 -85.6633 213° Southwest 390 449 27,400 -2,580 Descending Atlanta Center
11:02AM 34.3478 -85.7647 225° Southwest 396 456 24,700 -2,340 Descending Atlanta Center
11:03AM 34.2842 -85.8439 226° Southwest 381 438 22,800 -2,160 Descending Atlanta Center
11:04AM 34.2158 -85.9378 229° Southwest 381 438 20,500 -2,220 Descending Atlanta Center
11:06AM 34.0836 -86.1131 228° Southwest 360 414 16,300 -2,220 Descending Atlanta Center
11:07AM 34.0067 -86.2164 228° Southwest 342 394 13,800 -2,280 Descending Atlanta Center
11:07AM 33.9769 -86.2533 226° Southwest 339 390 12,900 -1,800 Descending Atlanta Center
11:08AM 33.9553 -86.2828 228° Southwest 353 406 12,200 -1,620 Descending Atlanta Center
11:09AM 33.9019 -86.3514 227° Southwest 327 376 11,000 -1,200 Descending Atlanta Center
11:09AM 33.8933 -86.3611 223° Southwest 348 400 11,000 -540 Level Atlanta Center
11:10AM 33.8400 -86.4272 226° Southwest 315 362 10,500 -840 Descending Atlanta Center
11:10AM 33.8317 -86.4319 205° Southwest 330 380 10,200 -1,740 Descending Atlanta Center
11:11AM 33.7906 -86.4958 232° Southwest 267 307 8,800 -1,620 Descending Atlanta Center
11:11AM 33.7842 -86.5033 224° Southwest 304 350 8,600 -1,560 Descending Atlanta Center
11:11AM 33.7539 -86.5647 239° Southwest 263 303 7,400 -1,620 Descending Atlanta Center
11:12AM 33.7472 -86.5797 242° Southwest 285 328 7,000 -1,620 Descending Atlanta Center
11:13AM 33.7125 -86.6433 237° Southwest 257 296 5,600 -1,680 Descending Atlanta Center
11:13AM 33.7081 -86.6508 235° Southwest 272 313 5,400 -1,560 Descending Atlanta Center
11:13AM 33.6778 -86.7072 237° Southwest 256 295 4,200 -1,620 Descending Atlanta Center
11:14AM 33.6711 -86.7222 242° Southwest 266 306 3,800 -1,200 Descending Atlanta Center
11:14AM 33.6406 -86.7811 238° Southwest 252 290 3,000 -840 Descending Atlanta Center
11:15AM 33.6342 -86.7933 238° Southwest 266 306 3,000 -660 Level Atlanta Center
11:16AM 33.5892 -86.8442 223° Southwest 212 244 2,300 -720 Descending Atlanta Center
11:16AM 33.5892 -86.8417 90° East 245 282 2,300 -360 Level Atlanta Center
11:17AM 33.5542 -86.8206 153° Southeast 167 192 1,900 -720 Descending Atlanta Center
11:18AM 33.5444 -86.7906 111° Southeast 116 133 1,000 -1,020 Descending Atlanta Center
11:20AM 33.5500 -86.7500 220° Southwest  Level FlightAware Approximate